createdAt,value
2022-11-17T00:02:42.250Z,25.52
2022-11-17T00:05:13.187Z,25.58
2022-11-17T00:07:41.586Z,24.92
2022-11-17T00:10:09.982Z,24.50
2022-11-17T00:12:55.477Z,27.05
2022-11-17T00:15:23.651Z,31.33
2022-11-17T00:18:11.839Z,26.08
2022-11-17T00:20:59.707Z,39.78
2022-11-17T00:23:46.898Z,47.20
2022-11-17T00:26:17.233Z,28.13
2022-11-17T00:28:45.717Z,37.40
2022-11-17T00:31:32.455Z,26.25
2022-11-17T00:34:07.141Z,25.00
2022-11-17T00:36:42.351Z,24.15
2022-11-17T00:39:11.426Z,24.80
2022-11-17T00:41:39.663Z,25.15
2022-11-17T00:44:08.632Z,22.85
2022-11-17T00:46:38.150Z,24.33
2022-11-17T00:49:07.570Z,23.65
2022-11-17T00:51:38.530Z,28.00
2022-11-17T00:54:11.123Z,24.35
2022-11-17T00:56:39.545Z,20.90
2022-11-17T00:59:07.758Z,22.40
2022-11-17T01:01:36.020Z,22.85
2022-11-17T01:04:05.107Z,23.25
2022-11-17T01:06:34.960Z,22.08
2022-11-17T01:09:04.996Z,24.38
2022-11-17T01:11:34.978Z,22.65
2022-11-17T01:14:03.504Z,21.65
2022-11-17T01:16:32.916Z,24.23
2022-11-17T01:19:02.715Z,27.33
2022-11-17T01:21:32.226Z,24.30
2022-11-17T01:24:02.343Z,20.58
2022-11-17T01:26:32.643Z,25.88
2022-11-17T01:29:03.680Z,22.00
2022-11-17T01:31:33.383Z,22.30
2022-11-17T01:34:02.043Z,23.85
2022-11-17T01:36:51.919Z,21.40
2022-11-17T01:39:25.007Z,20.38
2022-11-17T01:41:53.875Z,20.33
2022-11-17T01:44:56.880Z,25.95
2022-11-17T01:47:30.578Z,21.75
2022-11-17T01:50:04.899Z,22.05
2022-11-17T01:52:35.811Z,21.50
2022-11-17T01:55:05.341Z,24.52
2022-11-17T01:57:39.147Z,20.90
2022-11-17T02:00:11.324Z,22.35
2022-11-17T02:02:42.111Z,21.42
2022-11-17T02:05:20.951Z,23.98
2022-11-17T02:07:52.150Z,20.95
2022-11-17T02:10:20.429Z,22.85
2022-11-17T02:12:49.894Z,24.00
2022-11-17T02:15:19.735Z,24.25
2022-11-17T02:17:48.063Z,19.98
2022-11-17T02:20:21.682Z,23.15
2022-11-17T02:23:15.449Z,21.90
2022-11-17T02:25:59.674Z,19.83
2022-11-17T02:28:31.174Z,21.48
2022-11-17T02:31:14.804Z,22.90
2022-11-17T02:33:54.056Z,21.88
2022-11-17T02:36:29.199Z,22.60
2022-11-17T02:39:03.953Z,21.90
2022-11-17T02:41:39.224Z,22.00
2022-11-17T02:44:11.226Z,23.25
2022-11-17T02:46:46.235Z,21.67
2022-11-17T02:49:20.844Z,24.55
2022-11-17T02:51:52.429Z,21.65
2022-11-17T02:54:22.435Z,22.67
2022-11-17T02:56:50.753Z,24.00
2022-11-17T02:59:25.646Z,21.27
2022-11-17T03:02:20.867Z,22.13
2022-11-17T03:05:01.190Z,21.67
2022-11-17T03:07:43.098Z,24.13
2022-11-17T03:10:16.065Z,22.73
2022-11-17T03:12:51.203Z,22.48
2022-11-17T03:15:28.756Z,22.42
2022-11-17T03:18:05.215Z,25.10
2022-11-17T03:20:41.431Z,21.85
2022-11-17T03:23:14.980Z,20.05
2022-11-17T03:25:46.720Z,23.52
2022-11-17T03:28:16.798Z,23.42
2022-11-17T03:30:49.339Z,21.60
2022-11-17T03:33:21.904Z,23.05
2022-11-17T03:35:53.751Z,20.20
2022-11-17T03:38:27.831Z,21.50
2022-11-17T03:40:59.246Z,21.77
2022-11-17T03:43:29.957Z,22.35
2022-11-17T03:46:05.135Z,23.95
2022-11-17T03:48:38.924Z,21.95
2022-11-17T03:51:11.847Z,24.42
2022-11-17T03:53:40.059Z,22.35
2022-11-17T03:56:21.078Z,20.33
2022-11-17T03:58:57.871Z,23.08
2022-11-17T04:01:30.000Z,23.40
2022-11-17T04:03:58.316Z,21.55
2022-11-17T04:06:26.664Z,22.98
2022-11-17T04:08:54.855Z,23.65
2022-11-17T04:11:40.380Z,22.98
2022-11-17T04:14:25.924Z,20.80
2022-11-17T04:16:55.642Z,24.02
2022-11-17T04:19:23.876Z,24.02
2022-11-17T04:21:52.150Z,21.15
2022-11-17T04:24:22.881Z,22.60
2022-11-17T04:27:08.384Z,24.75
2022-11-17T04:29:36.520Z,22.23
2022-11-17T04:32:06.223Z,23.17
2022-11-17T04:34:34.507Z,25.00
2022-11-17T04:37:07.961Z,26.58
2022-11-17T04:39:39.955Z,26.02
2022-11-17T04:42:07.280Z,23.67
2022-11-17T04:44:35.462Z,22.63
2022-11-17T04:47:06.928Z,26.45
2022-11-17T04:49:35.251Z,24.88
2022-11-17T04:52:03.708Z,28.83
2022-11-17T04:54:31.884Z,24.85
2022-11-17T04:57:00.159Z,26.40
2022-11-17T04:59:28.390Z,25.38
2022-11-17T05:01:58.786Z,26.60
2022-11-17T05:04:49.720Z,28.00
2022-11-17T05:07:18.149Z,27.17
2022-11-17T05:09:46.585Z,28.10
2022-11-17T05:12:32.194Z,25.65
2022-11-17T05:15:00.390Z,26.02
2022-11-17T05:17:27.676Z,24.38
2022-11-17T05:19:57.937Z,27.25
2022-11-17T05:22:43.784Z,28.75
2022-11-17T05:25:12.009Z,25.85
2022-11-17T05:27:40.144Z,26.75
2022-11-17T05:30:10.012Z,27.55
2022-11-17T05:32:38.553Z,30.27
2022-11-17T05:35:09.252Z,28.65
2022-11-17T05:37:37.489Z,25.85
2022-11-17T05:40:06.567Z,29.58
2022-11-17T05:42:35.918Z,28.98
2022-11-17T05:45:04.273Z,27.17
2022-11-17T05:47:32.512Z,24.42
2022-11-17T05:50:00.713Z,27.23
2022-11-17T05:52:30.271Z,27.50
2022-11-17T05:54:58.494Z,27.00
2022-11-17T05:57:32.012Z,30.40
2022-11-17T06:00:04.648Z,28.40
2022-11-17T06:02:45.556Z,28.92
2022-11-17T06:05:19.824Z,28.08
2022-11-17T06:07:50.201Z,29.50
2022-11-17T06:10:18.853Z,26.67
2022-11-17T06:12:47.395Z,26.15
2022-11-17T06:15:15.816Z,29.17
2022-11-17T06:17:48.216Z,27.55
2022-11-17T06:20:22.580Z,32.15
2022-11-17T06:22:52.460Z,28.55
2022-11-17T06:25:21.754Z,29.48
2022-11-17T06:27:51.326Z,25.95
2022-11-17T06:30:20.228Z,26.67
2022-11-17T06:32:50.764Z,27.33
2022-11-17T06:35:19.208Z,27.40
2022-11-17T06:37:47.449Z,26.08
2022-11-17T06:40:17.639Z,27.83
2022-11-17T06:43:03.012Z,29.58
2022-11-17T06:45:34.114Z,32.10
2022-11-17T06:48:02.332Z,30.88
2022-11-17T06:50:32.932Z,23.88
2022-11-17T06:53:02.472Z,24.38
2022-11-17T06:55:35.091Z,31.38
2022-11-17T06:58:05.439Z,28.35
2022-11-17T07:00:34.030Z,27.45
2022-11-17T07:03:03.605Z,24.50
2022-11-17T07:05:32.933Z,31.05
2022-11-17T07:08:02.431Z,22.80
2022-11-17T07:10:31.958Z,23.88
2022-11-17T07:13:01.825Z,29.27
2022-11-17T07:15:30.262Z,25.35
2022-11-17T07:17:59.376Z,28.45
2022-11-17T07:20:27.752Z,27.45
2022-11-17T07:23:00.937Z,25.83
2022-11-17T07:25:31.110Z,25.30
2022-11-17T07:28:01.432Z,23.77
2022-11-17T07:30:29.667Z,30.48
2022-11-17T07:33:00.042Z,27.50
2022-11-17T07:35:28.546Z,32.17
2022-11-17T07:37:59.259Z,27.27
2022-11-17T07:40:27.422Z,24.90
2022-11-17T07:42:55.852Z,25.95
2022-11-17T07:45:31.416Z,27.10
2022-11-17T07:48:02.201Z,26.70
2022-11-17T07:50:30.799Z,25.80
2022-11-17T07:52:59.637Z,23.60
2022-11-17T07:55:27.952Z,29.95
2022-11-17T07:57:57.333Z,27.67
2022-11-17T08:00:27.506Z,32.60
2022-11-17T08:02:55.709Z,32.35
2022-11-17T08:05:24.791Z,28.65
2022-11-17T08:07:56.494Z,23.10
2022-11-17T08:10:26.993Z,24.40
2022-11-17T08:12:56.022Z,27.05
2022-11-17T08:15:24.286Z,27.92
2022-11-17T08:17:58.108Z,20.30
2022-11-17T08:20:27.732Z,22.13
2022-11-17T08:22:56.155Z,21.88
2022-11-17T08:25:26.277Z,23.08
2022-11-17T08:27:56.170Z,26.30
2022-11-17T08:30:25.042Z,23.13
2022-11-17T08:32:56.997Z,20.15
2022-11-17T08:35:26.758Z,24.30
2022-11-17T08:37:58.229Z,26.02
2022-11-17T08:40:27.161Z,27.00
2022-11-17T08:43:00.865Z,27.38
2022-11-17T08:45:29.618Z,25.83
2022-11-17T08:47:59.295Z,28.33
2022-11-17T08:50:27.597Z,24.73
2022-11-17T08:52:55.666Z,25.50
2022-11-17T08:55:23.949Z,26.48
2022-11-17T08:57:52.121Z,29.73
2022-11-17T09:00:21.873Z,25.00
2022-11-17T09:02:50.084Z,27.17
2022-11-17T09:05:19.640Z,27.77
2022-11-17T09:07:47.908Z,34.78
2022-11-17T09:10:16.151Z,32.22
2022-11-17T09:12:44.532Z,27.08
2022-11-17T09:15:13.049Z,28.98
2022-11-17T09:17:43.050Z,28.92
2022-11-17T09:20:12.252Z,30.33
2022-11-17T09:22:41.839Z,28.50
2022-11-17T09:25:13.469Z,26.80
2022-11-17T09:27:41.996Z,34.43
2022-11-17T09:30:11.162Z,30.27
2022-11-17T09:32:39.366Z,26.40
2022-11-17T09:35:09.300Z,27.77
2022-11-17T09:37:37.470Z,31.63
2022-11-17T09:40:08.583Z,33.28
2022-11-17T09:42:40.902Z,30.35
2022-11-17T09:45:14.673Z,33.70
2022-11-17T09:47:48.876Z,28.48
2022-11-17T09:50:23.283Z,33.33
2022-11-17T09:52:59.553Z,32.25
2022-11-17T09:55:34.584Z,36.08
2022-11-17T09:58:12.124Z,31.27
2022-11-17T10:00:42.735Z,28.45
2022-11-17T10:03:20.051Z,39.25
2022-11-17T10:05:49.030Z,33.67
2022-11-17T10:08:20.446Z,33.33
2022-11-17T10:10:53.544Z,34.28
2022-11-17T10:13:28.171Z,36.58
2022-11-17T10:15:58.875Z,31.92
2022-11-17T10:18:38.239Z,31.27
2022-11-17T10:21:10.244Z,33.63
2022-11-17T10:23:47.383Z,29.95
2022-11-17T10:26:17.545Z,29.25
2022-11-17T10:28:45.992Z,29.33
2022-11-17T10:31:15.849Z,30.70
2022-11-17T10:33:46.545Z,32.85
2022-11-17T10:36:21.984Z,33.15
2022-11-17T10:38:52.396Z,39.05
2022-11-17T10:41:24.831Z,33.15
2022-11-17T10:44:02.388Z,32.60
2022-11-17T10:46:41.589Z,31.15
2022-11-17T10:49:25.304Z,31.85
2022-11-17T10:52:07.046Z,30.23
2022-11-17T10:54:35.200Z,32.40
2022-11-17T10:57:08.915Z,34.20
2022-11-17T10:59:45.133Z,32.20
2022-11-17T11:02:28.563Z,30.92
2022-11-17T11:05:08.214Z,30.38
2022-11-17T11:07:37.164Z,33.00
2022-11-17T11:10:15.669Z,34.97
2022-11-17T11:12:49.977Z,38.50
2022-11-17T11:15:21.655Z,32.17
2022-11-17T11:17:50.094Z,48.63
2022-11-17T11:20:21.045Z,32.88
2022-11-17T11:22:58.269Z,33.00
2022-11-17T11:25:35.713Z,30.38
2022-11-17T11:28:20.412Z,64.97
2022-11-17T11:30:59.255Z,28.40
2022-11-17T11:33:35.416Z,30.98
2022-11-17T11:36:23.176Z,29.75
2022-11-17T11:38:58.722Z,37.95
2022-11-17T11:41:43.219Z,29.10
2022-11-17T11:44:38.613Z,24.88
2022-11-17T11:47:17.809Z,29.92
2022-11-17T11:49:50.465Z,26.63
2022-11-17T11:52:22.039Z,28.13
2022-11-17T11:54:55.399Z,25.73
2022-11-17T11:57:28.294Z,29.35
2022-11-17T12:00:04.473Z,26.05
2022-11-17T12:02:43.716Z,23.42
2022-11-17T12:05:21.693Z,29.77
2022-11-17T12:07:55.574Z,27.30
2022-11-17T12:10:32.758Z,50.47
2022-11-17T12:13:01.830Z,58.55
2022-11-17T12:15:38.363Z,28.50
2022-11-17T12:18:13.745Z,24.90
2022-11-17T12:21:03.994Z,44.60
2022-11-17T12:23:50.350Z,25.02
2022-11-17T12:26:24.474Z,23.00
2022-11-17T12:29:26.931Z,59.45
2022-11-17T12:31:57.729Z,23.90
2022-11-17T12:34:28.875Z,23.75
2022-11-17T12:37:22.070Z,26.00
2022-11-17T12:42:25.843Z,22.77
2022-11-17T12:44:58.565Z,26.27
2022-11-17T12:47:30.356Z,28.13
2022-11-17T12:50:24.875Z,25.83
2022-11-17T12:53:12.218Z,29.00
2022-11-17T12:55:56.255Z,34.42
2022-11-17T12:58:32.054Z,26.10
2022-11-17T13:01:08.924Z,21.63
2022-11-17T13:03:47.852Z,32.10
2022-11-17T13:09:07.288Z,53.80
2022-11-17T13:11:36.490Z,27.60
2022-11-17T13:14:14.101Z,24.15
2022-11-17T13:16:46.808Z,25.83
2022-11-17T13:19:39.805Z,23.75
2022-11-17T13:22:16.715Z,41.45
2022-11-17T13:24:47.297Z,24.65
2022-11-17T13:27:23.439Z,26.88
2022-11-17T13:29:51.752Z,39.58
2022-11-17T13:32:23.856Z,23.27
2022-11-17T13:34:57.259Z,37.25
2022-11-17T13:37:29.720Z,33.00
2022-11-17T13:40:02.835Z,24.23
2022-11-17T13:42:33.317Z,29.27
2022-11-17T13:45:04.662Z,30.70
2022-11-17T13:47:45.519Z,25.90
2022-11-17T13:50:33.805Z,21.02
2022-11-17T13:53:05.115Z,29.38
2022-11-17T13:55:34.750Z,26.17
2022-11-17T13:58:05.006Z,27.67
2022-11-17T14:00:34.355Z,26.35
2022-11-17T14:03:04.532Z,24.23
2022-11-17T14:05:34.544Z,27.25
2022-11-17T14:08:13.945Z,24.27
2022-11-17T14:10:42.645Z,23.65
2022-11-17T14:13:21.971Z,29.25
2022-11-17T14:15:59.639Z,32.85
2022-11-17T14:18:37.302Z,27.52
2022-11-17T14:21:13.103Z,24.98
2022-11-17T14:23:41.778Z,27.85
2022-11-17T14:26:24.271Z,25.50
2022-11-17T14:28:53.378Z,28.23
2022-11-17T14:31:21.907Z,26.77
2022-11-17T14:33:50.448Z,26.13
2022-11-17T14:36:20.137Z,26.80
2022-11-17T14:38:48.746Z,31.80
2022-11-17T14:41:17.922Z,22.92
2022-11-17T14:43:46.156Z,26.00
2022-11-17T14:46:20.630Z,22.75
2022-11-17T14:48:48.844Z,27.08
2022-11-17T14:51:17.243Z,28.73
2022-11-17T14:53:47.806Z,27.17
2022-11-17T14:56:24.710Z,27.63
2022-11-17T14:58:55.595Z,29.40
2022-11-17T15:01:25.720Z,31.48
2022-11-17T15:03:55.227Z,29.80
2022-11-17T15:06:24.377Z,32.85
2022-11-17T15:08:58.432Z,28.85
2022-11-17T15:11:27.860Z,32.30
2022-11-17T15:13:56.266Z,32.58
2022-11-17T15:16:24.575Z,30.77
2022-11-17T15:18:52.823Z,38.20
2022-11-17T15:21:21.215Z,32.28
2022-11-17T15:23:49.430Z,35.17
2022-11-17T15:26:23.368Z,37.83
2022-11-17T15:28:51.688Z,35.72
2022-11-17T15:31:21.011Z,33.03
2022-11-17T15:33:49.606Z,31.55
2022-11-17T15:36:19.917Z,38.78
2022-11-17T15:38:48.544Z,45.13
2022-11-17T15:41:19.402Z,38.35
2022-11-17T15:43:47.674Z,30.77
2022-11-17T15:46:17.902Z,44.65
2022-11-17T15:48:49.239Z,38.28
2022-11-17T15:51:19.153Z,36.42
2022-11-17T15:53:48.417Z,34.08
2022-11-17T15:56:20.179Z,38.45
2022-11-17T15:58:49.666Z,38.97
2022-11-17T16:01:26.731Z,42.55
2022-11-17T16:03:59.607Z,33.95
2022-11-17T16:08:56.226Z,38.65
2022-11-17T16:11:26.954Z,35.65
2022-11-17T16:13:55.608Z,31.30
2022-11-17T16:16:25.820Z,34.65
2022-11-17T16:18:54.386Z,32.80
2022-11-17T16:21:22.746Z,36.90
2022-11-17T16:23:53.188Z,40.35
2022-11-17T16:26:22.088Z,39.70
2022-11-17T16:28:58.562Z,34.45
2022-11-17T16:31:28.546Z,36.42
2022-11-17T16:33:58.548Z,33.45
2022-11-17T16:36:34.358Z,32.67
2022-11-17T16:39:05.156Z,33.38
2022-11-17T16:41:38.851Z,35.80
2022-11-17T16:44:11.752Z,31.90
2022-11-17T16:46:43.189Z,35.75
2022-11-17T16:49:14.108Z,35.53
2022-11-17T16:51:47.098Z,35.28
2022-11-17T16:54:15.519Z,35.30
2022-11-17T16:56:43.908Z,32.38
2022-11-17T16:59:14.485Z,35.97
2022-11-17T17:01:43.098Z,36.42
2022-11-17T17:04:12.214Z,36.42
2022-11-17T17:06:41.430Z,35.08
2022-11-17T17:09:11.692Z,34.42
2022-11-17T17:11:40.242Z,36.95
2022-11-17T17:14:10.647Z,36.05
2022-11-17T17:16:40.408Z,33.83
2022-11-17T17:19:10.365Z,35.42
2022-11-17T17:21:39.798Z,35.85
2022-11-17T17:24:08.588Z,39.13
2022-11-17T17:26:37.779Z,35.53
2022-11-17T17:29:08.070Z,33.00
2022-11-17T17:31:38.088Z,37.17
2022-11-17T17:34:08.836Z,36.30
2022-11-17T17:36:38.484Z,36.45
2022-11-17T17:39:07.013Z,36.95
2022-11-17T17:41:41.095Z,39.33
2022-11-17T17:44:14.217Z,40.85
2022-11-17T17:46:45.283Z,40.28
2022-11-17T17:49:15.199Z,38.55
2022-11-17T17:51:45.044Z,40.65
2022-11-17T17:54:17.039Z,44.92
2022-11-17T17:56:45.500Z,39.10
2022-11-17T17:59:16.996Z,43.03
2022-11-17T18:01:47.641Z,44.30
2022-11-17T18:04:17.756Z,40.25
2022-11-17T18:06:47.895Z,45.03
2022-11-17T18:09:19.374Z,42.63
2022-11-17T18:11:50.081Z,47.15
2022-11-17T18:14:29.477Z,46.17
2022-11-17T18:16:57.704Z,48.17
2022-11-17T18:19:32.731Z,49.25
2022-11-17T18:22:01.424Z,48.28
2022-11-17T18:24:47.622Z,45.65
2022-11-17T18:27:22.444Z,52.08
2022-11-17T18:29:50.634Z,55.35
2022-11-17T18:32:18.829Z,47.55
2022-11-17T18:34:48.457Z,48.08
2022-11-17T18:37:16.752Z,50.42
2022-11-17T18:39:45.172Z,47.20
2022-11-17T18:42:15.009Z,52.13
2022-11-17T18:44:43.127Z,47.95
2022-11-17T18:47:11.268Z,48.42
2022-11-17T18:49:42.186Z,47.50
2022-11-17T18:52:13.097Z,50.35
2022-11-17T18:54:41.609Z,47.03
2022-11-17T18:57:09.744Z,53.70
2022-11-17T18:59:37.869Z,46.28
2022-11-17T19:02:06.104Z,49.90
2022-11-17T19:04:34.272Z,48.50
2022-11-17T19:07:02.435Z,43.75
2022-11-17T19:09:34.938Z,48.38
2022-11-17T19:12:03.092Z,47.50
2022-11-17T19:14:31.322Z,46.47
2022-11-17T19:16:59.496Z,49.05
2022-11-17T19:19:27.618Z,49.33
2022-11-17T19:21:55.710Z,50.22
2022-11-17T19:24:23.810Z,51.35
2022-11-17T19:26:53.337Z,46.28
2022-11-17T19:29:21.876Z,49.95
2022-11-17T19:31:52.396Z,50.22
2022-11-17T19:34:20.709Z,48.92
2022-11-17T19:36:49.998Z,52.22
2022-11-17T19:39:18.528Z,49.38
2022-11-17T19:41:47.730Z,48.22
2022-11-17T19:44:17.411Z,50.95
2022-11-17T19:46:47.760Z,48.55
2022-11-17T19:49:16.051Z,48.28
2022-11-17T19:51:44.389Z,53.15
2022-11-17T19:54:14.166Z,55.67
2022-11-17T19:56:42.343Z,52.47
2022-11-17T19:59:15.740Z,54.83
2022-11-17T20:01:46.818Z,55.42
2022-11-17T20:04:15.226Z,53.08
2022-11-17T20:06:43.518Z,50.03
2022-11-17T20:09:13.931Z,53.45
2022-11-17T20:11:42.711Z,56.22
2022-11-17T20:14:10.856Z,60.28
2022-11-17T20:16:39.470Z,54.75
2022-11-17T20:19:10.438Z,57.67
2022-11-17T20:21:38.500Z,57.08
2022-11-17T20:24:07.106Z,55.05
2022-11-17T20:26:36.185Z,55.80
2022-11-17T20:29:04.288Z,55.80
2022-11-17T20:31:34.178Z,58.10
2022-11-17T20:34:04.179Z,57.13
2022-11-17T20:36:35.037Z,53.88
2022-11-17T20:39:07.672Z,54.30
2022-11-17T20:41:36.147Z,54.58
2022-11-17T20:44:04.656Z,51.33
2022-11-17T20:46:33.114Z,49.25
2022-11-17T20:49:03.442Z,49.78
2022-11-17T20:51:35.418Z,58.08
2022-11-17T20:54:05.814Z,58.53
2022-11-17T20:56:34.072Z,55.63
2022-11-17T20:59:02.300Z,51.47
2022-11-17T21:01:30.480Z,50.97
2022-11-17T21:03:58.795Z,53.92
2022-11-17T21:06:27.839Z,48.28
2022-11-17T21:08:57.616Z,56.30
2022-11-17T21:11:43.641Z,55.63
2022-11-17T21:14:15.701Z,56.33
2022-11-17T21:16:45.643Z,54.57
2022-11-17T21:19:15.157Z,49.72
2022-11-17T21:21:43.844Z,55.22
2022-11-17T21:24:13.513Z,57.17
2022-11-17T21:26:41.724Z,60.08
2022-11-17T21:29:09.825Z,53.65
2022-11-17T21:31:40.094Z,50.60
2022-11-17T21:34:08.707Z,50.47
2022-11-17T21:36:37.172Z,52.95
2022-11-17T21:39:05.705Z,50.95
2022-11-17T21:41:37.765Z,58.47
2022-11-17T21:44:06.301Z,51.70
2022-11-17T21:46:36.089Z,50.95
2022-11-17T21:49:04.756Z,51.13
2022-11-17T21:51:38.206Z,50.05
2022-11-17T21:54:08.071Z,51.75
2022-11-17T21:56:37.854Z,49.38
2022-11-17T21:59:08.401Z,49.60
2022-11-17T22:01:37.433Z,51.00
2022-11-17T22:04:06.011Z,48.67
2022-11-17T22:06:34.370Z,48.10
2022-11-17T22:09:02.596Z,50.45
2022-11-17T22:11:39.115Z,48.80
2022-11-17T22:14:11.076Z,49.17
2022-11-17T22:16:41.026Z,52.27
2022-11-17T22:19:12.590Z,53.63
2022-11-17T22:21:41.384Z,55.38
2022-11-17T22:24:11.432Z,52.00
2022-11-17T22:26:41.201Z,53.83
2022-11-17T22:29:12.621Z,55.80
2022-11-17T22:31:40.899Z,55.42
2022-11-17T22:34:09.082Z,53.47
2022-11-17T22:36:37.542Z,50.85
2022-11-17T22:39:06.556Z,56.97
2022-11-17T22:41:37.490Z,49.28
2022-11-17T22:44:06.283Z,58.10
2022-11-17T22:46:36.357Z,53.75
2022-11-17T22:49:04.504Z,55.63
2022-11-17T22:51:50.004Z,55.83
2022-11-17T22:54:18.181Z,56.10
2022-11-17T22:56:46.369Z,56.97
2022-11-17T22:59:14.868Z,57.92
2022-11-17T23:01:44.637Z,56.35
2022-11-17T23:04:12.960Z,58.92
2022-11-17T23:06:41.044Z,56.70
2022-11-17T23:09:09.175Z,58.17
2022-11-17T23:11:38.557Z,60.17
2022-11-17T23:14:08.234Z,63.33
2022-11-17T23:16:36.689Z,64.93
2022-11-17T23:19:09.429Z,62.20
2022-11-17T23:21:40.227Z,61.42
2022-11-17T23:24:12.444Z,60.20
2022-11-17T23:26:41.083Z,59.13
2022-11-17T23:29:10.402Z,61.22
2022-11-17T23:31:39.131Z,64.53
2022-11-17T23:34:10.049Z,63.83
2022-11-17T23:36:39.467Z,66.13
2022-11-17T23:39:07.763Z,64.45
2022-11-17T23:41:35.947Z,65.78
2022-11-17T23:44:04.119Z,66.20
2022-11-17T23:46:32.278Z,68.88
2022-11-17T23:49:00.410Z,71.85
2022-11-17T23:51:30.030Z,67.20
2022-11-17T23:54:00.214Z,67.70
2022-11-17T23:56:33.504Z,72.05
2022-11-17T23:59:01.903Z,70.95
